sensor_id;sensor_type;location;lat;lon;timestamp;pressure;altitude;pressure_sealevel;temperature;humidity
37878;BME280;23715;53.652;8.516;2023-02-28T00:01:41;103298.67;;;6.53;100.00
37878;BME280;23715;53.652;8.516;2023-02-28T00:06:41;103305.52;;;6.47;100.00
37878;BME280;23715;53.652;8.516;2023-02-28T00:11:41;103301.89;;;6.49;100.00
37878;BME280;23715;53.652;8.516;2023-02-28T00:16:43;103295.76;;;6.45;100.00
37878;BME280;23715;53.652;8.516;2023-02-28T00:21:43;103290.50;;;6.57;100.00
37878;BME280;23715;53.652;8.516;2023-02-28T00:26:44;103298.21;;;6.68;100.00
37878;BME280;23715;53.652;8.516;2023-02-28T00:31:44;103292.86;;;6.68;100.00
37878;BME280;23715;53.652;8.516;2023-02-28T00:36:44;103296.88;;;6.68;100.00
37878;BME280;23715;53.652;8.516;2023-02-28T00:41:46;103287.59;;;6.65;100.00
37878;BME280;23715;53.652;8.516;2023-02-28T00:46:46;103291.76;;;6.60;100.00
37878;BME280;23715;53.652;8.516;2023-02-28T00:51:47;103299.34;;;6.59;100.00
37878;BME280;23715;53.652;8.516;2023-02-28T00:56:49;103301.39;;;6.66;100.00
37878;BME280;23715;53.652;8.516;2023-02-28T01:01:49;103297.70;;;6.55;100.00
37878;BME280;23715;53.652;8.516;2023-02-28T01:06:50;103295.44;;;6.41;100.00
37878;BME280;23715;53.652;8.516;2023-02-28T01:11:50;103299.61;;;6.20;100.00
37878;BME280;23715;53.652;8.516;2023-02-28T01:16:50;103307.63;;;6.20;100.00
37878;BME280;23715;53.652;8.516;2023-02-28T01:21:51;103308.88;;;6.07;100.00
37878;BME280;23715;53.652;8.516;2023-02-28T01:26:51;103319.75;;;5.99;100.00
37878;BME280;23715;53.652;8.516;2023-02-28T01:31:53;103320.84;;;6.09;100.00
37878;BME280;23715;53.652;8.516;2023-02-28T01:36:53;103328.45;;;6.08;100.00
37878;BME280;23715;53.652;8.516;2023-02-28T01:41:53;103327.17;;;5.70;100.00
37878;BME280;23715;53.652;8.516;2023-02-28T01:46:54;103330.29;;;6.05;100.00
37878;BME280;23715;53.652;8.516;2023-02-28T01:51:55;103333.58;;;6.15;100.00
37878;BME280;23715;53.652;8.516;2023-02-28T01:57:03;103334.13;;;6.28;100.00
37878;BME280;23715;53.652;8.516;2023-02-28T02:02:04;103327.88;;;6.28;100.00
37878;BME280;23715;53.652;8.516;2023-02-28T02:07:05;103323.30;;;6.33;100.00
37878;BME280;23715;53.652;8.516;2023-02-28T02:12:08;103335.64;;;6.37;100.00
37878;BME280;23715;53.652;8.516;2023-02-28T02:17:30;103328.23;;;6.47;100.00
37878;BME280;23715;53.652;8.516;2023-02-28T02:33:42;103328.92;;;6.22;100.00
37878;BME280;23715;53.652;8.516;2023-02-28T02:44:07;103337.61;;;5.97;100.00
37878;BME280;23715;53.652;8.516;2023-02-28T02:48:59;103343.02;;;5.96;100.00
37878;BME280;23715;53.652;8.516;2023-02-28T02:54:05;103345.50;;;5.84;100.00
37878;BME280;23715;53.652;8.516;2023-02-28T02:59:07;103346.43;;;5.83;100.00
37878;BME280;23715;53.652;8.516;2023-02-28T03:04:16;103350.44;;;5.83;100.00
37878;BME280;23715;53.652;8.516;2023-02-28T03:09:12;103349.27;;;5.77;100.00
37878;BME280;23715;53.652;8.516;2023-02-28T03:14:19;103358.34;;;5.86;100.00
37878;BME280;23715;53.652;8.516;2023-02-28T03:30:06;103361.15;;;5.81;100.00
37878;BME280;23715;53.652;8.516;2023-02-28T03:35:17;103371.25;;;5.68;100.00
37878;BME280;23715;53.652;8.516;2023-02-28T03:40:23;103370.19;;;5.76;100.00
37878;BME280;23715;53.652;8.516;2023-02-28T03:45:28;103364.28;;;5.81;100.00
37878;BME280;23715;53.652;8.516;2023-02-28T03:50:35;103367.86;;;5.80;100.00
37878;BME280;23715;53.652;8.516;2023-02-28T03:55:39;103366.25;;;5.73;100.00
37878;BME280;23715;53.652;8.516;2023-02-28T04:00:43;103363.31;;;5.47;100.00
37878;BME280;23715;53.652;8.516;2023-02-28T04:05:53;103364.56;;;5.52;100.00
37878;BME280;23715;53.652;8.516;2023-02-28T04:10:58;103359.16;;;5.54;100.00
37878;BME280;23715;53.652;8.516;2023-02-28T04:15:57;103359.56;;;5.37;100.00
37878;BME280;23715;53.652;8.516;2023-02-28T04:20:59;103381.19;;;5.44;100.00
37878;BME280;23715;53.652;8.516;2023-02-28T04:26:00;103381.19;;;5.44;100.00
37878;BME280;23715;53.652;8.516;2023-02-28T04:31:04;103390.34;;;5.52;100.00
37878;BME280;23715;53.652;8.516;2023-02-28T04:36:03;103381.59;;;5.46;100.00
37878;BME280;23715;53.652;8.516;2023-02-28T04:41:04;103393.64;;;5.45;100.00
37878;BME280;23715;53.652;8.516;2023-02-28T04:46:07;103391.20;;;5.34;100.00
37878;BME280;23715;53.652;8.516;2023-02-28T04:51:10;103394.11;;;5.23;100.00
37878;BME280;23715;53.652;8.516;2023-02-28T04:56:13;103389.77;;;5.19;100.00
37878;BME280;23715;53.652;8.516;2023-02-28T05:01:28;103406.91;;;5.28;100.00
37878;BME280;23715;53.652;8.516;2023-02-28T05:06:31;103402.61;;;5.21;100.00
37878;BME280;23715;53.652;8.516;2023-02-28T05:11:34;103408.58;;;5.14;100.00
37878;BME280;23715;53.652;8.516;2023-02-28T05:16:35;103408.58;;;5.13;100.00
37878;BME280;23715;53.652;8.516;2023-02-28T05:21:41;103412.53;;;5.16;100.00
37878;BME280;23715;53.652;8.516;2023-02-28T05:26:42;103413.45;;;5.20;100.00
37878;BME280;23715;53.652;8.516;2023-02-28T05:31:43;103413.45;;;5.14;100.00
37878;BME280;23715;53.652;8.516;2023-02-28T05:36:42;103403.64;;;4.95;100.00
37878;BME280;23715;53.652;8.516;2023-02-28T05:41:43;103403.13;;;4.98;100.00
37878;BME280;23715;53.652;8.516;2023-02-28T05:46:44;103389.25;;;4.82;100.00
37878;BME280;23715;53.652;8.516;2023-02-28T05:51:44;103387.97;;;4.79;100.00
37878;BME280;23715;53.652;8.516;2023-02-28T05:56:47;103386.28;;;4.75;100.00
37878;BME280;23715;53.652;8.516;2023-02-28T06:01:46;103384.66;;;4.66;100.00
37878;BME280;23715;53.652;8.516;2023-02-28T06:06:51;103390.41;;;4.46;100.00
37878;BME280;23715;53.652;8.516;2023-02-28T06:11:51;103377.94;;;4.24;100.00
37878;BME280;23715;53.652;8.516;2023-02-28T06:16:52;103383.05;;;4.37;100.00
37878;BME280;23715;53.652;8.516;2023-02-28T06:21:53;103390.72;;;4.54;100.00
37878;BME280;23715;53.652;8.516;2023-02-28T06:26:54;103397.56;;;4.44;100.00
37878;BME280;23715;53.652;8.516;2023-02-28T06:31:54;103394.70;;;4.31;100.00
37878;BME280;23715;53.652;8.516;2023-02-28T06:36:54;103405.23;;;4.37;100.00
37878;BME280;23715;53.652;8.516;2023-02-28T06:41:54;103402.13;;;4.60;100.00
37878;BME280;23715;53.652;8.516;2023-02-28T06:46:58;103413.37;;;4.54;100.00
37878;BME280;23715;53.652;8.516;2023-02-28T06:51:56;103425.66;;;4.38;100.00
37878;BME280;23715;53.652;8.516;2023-02-28T06:56:58;103418.75;;;4.50;100.00
37878;BME280;23715;53.652;8.516;2023-02-28T07:02:01;103421.75;;;4.56;100.00
37878;BME280;23715;53.652;8.516;2023-02-28T07:07:01;103437.70;;;4.35;100.00
37878;BME280;23715;53.652;8.516;2023-02-28T07:12:01;103432.03;;;4.54;100.00
37878;BME280;23715;53.652;8.516;2023-02-28T07:17:02;103433.37;;;4.76;100.00
37878;BME280;23715;53.652;8.516;2023-02-28T07:22:01;103436.29;;;5.06;100.00
37878;BME280;23715;53.652;8.516;2023-02-28T07:27:04;103431.28;;;5.12;100.00
37878;BME280;23715;53.652;8.516;2023-02-28T07:32:05;103428.42;;;5.21;100.00
37878;BME280;23715;53.652;8.516;2023-02-28T07:37:08;103417.08;;;5.31;100.00
37878;BME280;23715;53.652;8.516;2023-02-28T07:42:09;103414.44;;;5.29;100.00
37878;BME280;23715;53.652;8.516;2023-02-28T07:47:11;103412.91;;;5.38;100.00
37878;BME280;23715;53.652;8.516;2023-02-28T07:52:11;103406.48;;;5.36;100.00
37878;BME280;23715;53.652;8.516;2023-02-28T07:57:11;103406.48;;;5.47;100.00
37878;BME280;23715;53.652;8.516;2023-02-28T08:02:14;103410.16;;;5.61;100.00
37878;BME280;23715;53.652;8.516;2023-02-28T08:07:16;103413.47;;;5.71;100.00
37878;BME280;23715;53.652;8.516;2023-02-28T08:12:17;103413.33;;;5.95;100.00
37878;BME280;23715;53.652;8.516;2023-02-28T08:17:17;103410.16;;;5.98;100.00
37878;BME280;23715;53.652;8.516;2023-02-28T08:22:17;103406.63;;;6.14;100.00
37878;BME280;23715;53.652;8.516;2023-02-28T08:27:17;103402.55;;;6.17;100.00
37878;BME280;23715;53.652;8.516;2023-02-28T08:32:18;103407.56;;;6.46;100.00
37878;BME280;23715;53.652;8.516;2023-02-28T08:37:17;103399.56;;;6.77;100.00
37878;BME280;23715;53.652;8.516;2023-02-28T08:42:19;103395.19;;;7.04;100.00
37878;BME280;23715;53.652;8.516;2023-02-28T08:47:20;103386.64;;;6.92;100.00
37878;BME280;23715;53.652;8.516;2023-02-28T08:52:21;103390.20;;;6.77;100.00
37878;BME280;23715;53.652;8.516;2023-02-28T08:57:22;103377.28;;;7.07;100.00
37878;BME280;23715;53.652;8.516;2023-02-28T09:02:24;103372.52;;;7.16;100.00
37878;BME280;23715;53.652;8.516;2023-02-28T09:07:26;103375.65;;;7.31;100.00
37878;BME280;23715;53.652;8.516;2023-02-28T09:12:27;103369.80;;;7.18;100.00
37878;BME280;23715;53.652;8.516;2023-02-28T09:17:28;103365.31;;;7.18;100.00
37878;BME280;23715;53.652;8.516;2023-02-28T09:22:29;103371.83;;;7.38;100.00
37878;BME280;23715;53.652;8.516;2023-02-28T09:27:30;103366.81;;;7.42;100.00
37878;BME280;23715;53.652;8.516;2023-02-28T09:32:30;103366.19;;;7.74;100.00
37878;BME280;23715;53.652;8.516;2023-02-28T09:37:31;103366.19;;;7.74;100.00
37878;BME280;23715;53.652;8.516;2023-02-28T09:42:34;103365.92;;;7.55;100.00
37878;BME280;23715;53.652;8.516;2023-02-28T09:47:38;103365.92;;;7.55;100.00
37878;BME280;23715;53.652;8.516;2023-02-28T09:52:38;103375.22;;;7.85;100.00
37878;BME280;23715;53.652;8.516;2023-02-28T09:57:40;103376.20;;;7.95;100.00
37878;BME280;23715;53.652;8.516;2023-02-28T10:08:25;103381.24;;;8.05;100.00
37878;BME280;23715;53.652;8.516;2023-02-28T10:18:54;103384.62;;;8.10;100.00
37878;BME280;23715;53.652;8.516;2023-02-28T10:29:21;103372.20;;;8.46;100.00
37878;BME280;23715;53.652;8.516;2023-02-28T10:34:22;103385.41;;;8.38;100.00
37878;BME280;23715;53.652;8.516;2023-02-28T10:39:43;103379.80;;;8.33;100.00
37878;BME280;23715;53.652;8.516;2023-02-28T10:44:46;103373.39;;;8.50;100.00
37878;BME280;23715;53.652;8.516;2023-02-28T10:49:50;103377.19;;;8.68;100.00
37878;BME280;23715;53.652;8.516;2023-02-28T10:55:13;103378.13;;;8.67;100.00
37878;BME280;23715;53.652;8.516;2023-02-28T11:00:20;103372.58;;;8.84;100.00
37878;BME280;23715;53.652;8.516;2023-02-28T11:05:35;103362.77;;;9.06;100.00
37878;BME280;23715;53.652;8.516;2023-02-28T11:10:47;103371.07;;;9.34;100.00
37878;BME280;23715;53.652;8.516;2023-02-28T11:15:57;103371.77;;;9.39;100.00
37878;BME280;23715;53.652;8.516;2023-02-28T11:21:06;103364.42;;;9.54;100.00
37878;BME280;23715;53.652;8.516;2023-02-28T11:26:06;103356.42;;;9.53;100.00
37878;BME280;23715;53.652;8.516;2023-02-28T11:36:30;103363.94;;;9.33;100.00
37878;BME280;23715;53.652;8.516;2023-02-28T12:02:54;103344.81;;;9.52;100.00
37878;BME280;23715;53.652;8.516;2023-02-28T13:51:47;103255.09;;;8.58;100.00
37878;BME280;23715;53.652;8.516;2023-02-28T13:56:52;103254.49;;;8.50;100.00
37878;BME280;23715;53.652;8.516;2023-02-28T14:06:55;103231.81;;;9.35;100.00
37878;BME280;23715;53.652;8.516;2023-02-28T14:11:57;103242.91;;;8.83;100.00
37878;BME280;23715;53.652;8.516;2023-02-28T14:17:05;103238.52;;;9.25;100.00
37878;BME280;23715;53.652;8.516;2023-02-28T14:27:22;103245.90;;;8.40;100.00
37878;BME280;23715;53.652;8.516;2023-02-28T14:32:45;103242.60;;;8.57;100.00
37878;BME280;23715;53.652;8.516;2023-02-28T14:37:45;103244.42;;;8.90;100.00
37878;BME280;23715;53.652;8.516;2023-02-28T14:43:00;103255.48;;;8.24;100.00
37878;BME280;23715;53.652;8.516;2023-02-28T14:47:51;103258.16;;;7.61;100.00
37878;BME280;23715;53.652;8.516;2023-02-28T14:52:55;103263.83;;;7.52;100.00
37878;BME280;23715;53.652;8.516;2023-02-28T14:58:01;103264.65;;;7.14;100.00
37878;BME280;23715;53.652;8.516;2023-02-28T15:08:15;103252.73;;;7.76;100.00
37878;BME280;23715;53.652;8.516;2023-02-28T15:13:19;103249.98;;;8.74;100.00
37878;BME280;23715;53.652;8.516;2023-02-28T15:18:33;103241.90;;;9.40;100.00
37878;BME280;23715;53.652;8.516;2023-02-28T15:23:42;103245.66;;;9.46;100.00
37878;BME280;23715;53.652;8.516;2023-02-28T15:28:44;103247.01;;;9.04;100.00
37878;BME280;23715;53.652;8.516;2023-02-28T15:33:56;103231.28;;;9.99;100.00
37878;BME280;23715;53.652;8.516;2023-02-28T15:39:00;103235.59;;;9.92;100.00
37878;BME280;23715;53.652;8.516;2023-02-28T15:49:32;103224.80;;;9.73;100.00
37878;BME280;23715;53.652;8.516;2023-02-28T15:54:34;103213.15;;;9.73;100.00
37878;BME280;23715;53.652;8.516;2023-02-28T15:59:36;103214.50;;;9.83;100.00
37878;BME280;23715;53.652;8.516;2023-02-28T16:09:44;103224.47;;;8.16;100.00
37878;BME280;23715;53.652;8.516;2023-02-28T16:14:45;103232.55;;;7.91;100.00
37878;BME280;23715;53.652;8.516;2023-02-28T16:19:48;103230.53;;;7.73;100.00
37878;BME280;23715;53.652;8.516;2023-02-28T16:24:52;103236.45;;;8.06;100.00
37878;BME280;23715;53.652;8.516;2023-02-28T16:29:52;103242.36;;;7.79;100.00
37878;BME280;23715;53.652;8.516;2023-02-28T16:34:59;103248.69;;;7.24;100.00
37878;BME280;23715;53.652;8.516;2023-02-28T16:40:08;103260.12;;;7.16;100.00
37878;BME280;23715;53.652;8.516;2023-02-28T16:45:06;103264.57;;;6.89;100.00
37878;BME280;23715;53.652;8.516;2023-02-28T16:50:18;103275.05;;;6.52;100.00
37878;BME280;23715;53.652;8.516;2023-02-28T16:55:25;103279.40;;;6.41;100.00
37878;BME280;23715;53.652;8.516;2023-02-28T17:00:29;103292.11;;;6.63;100.00
37878;BME280;23715;53.652;8.516;2023-02-28T17:05:37;103291.05;;;6.54;100.00
37878;BME280;23715;53.652;8.516;2023-02-28T17:10:38;103292.49;;;6.03;100.00
37878;BME280;23715;53.652;8.516;2023-02-28T17:15:46;103300.28;;;5.94;100.00
37878;BME280;23715;53.652;8.516;2023-02-28T17:20:45;103308.45;;;6.06;100.00
37878;BME280;23715;53.652;8.516;2023-02-28T17:25:49;103303.14;;;6.21;100.00
37878;BME280;23715;53.652;8.516;2023-02-28T17:30:56;103301.77;;;5.72;100.00
37878;BME280;23715;53.652;8.516;2023-02-28T17:36:04;103312.16;;;5.66;100.00
37878;BME280;23715;53.652;8.516;2023-02-28T17:41:10;103321.47;;;5.67;100.00
37878;BME280;23715;53.652;8.516;2023-02-28T17:46:16;103323.52;;;5.56;100.00
37878;BME280;23715;53.652;8.516;2023-02-28T17:51:20;103332.31;;;5.24;100.00
37878;BME280;23715;53.652;8.516;2023-02-28T17:56:23;103336.22;;;5.09;100.00
37878;BME280;23715;53.652;8.516;2023-02-28T18:01:25;103348.14;;;5.50;100.00
37878;BME280;23715;53.652;8.516;2023-02-28T18:06:29;103355.17;;;5.72;100.00
37878;BME280;23715;53.652;8.516;2023-02-28T18:11:29;103355.37;;;5.26;100.00
37878;BME280;23715;53.652;8.516;2023-02-28T18:16:31;103355.23;;;5.68;100.00
37878;BME280;23715;53.652;8.516;2023-02-28T18:21:37;103367.23;;;5.52;100.00
37878;BME280;23715;53.652;8.516;2023-02-28T18:26:50;103369.77;;;5.39;100.00
37878;BME280;23715;53.652;8.516;2023-02-28T18:31:56;103368.42;;;5.00;100.00
37878;BME280;23715;53.652;8.516;2023-02-28T18:37:30;103372.13;;;5.12;100.00
37878;BME280;23715;53.652;8.516;2023-02-28T18:42:46;103371.55;;;5.19;100.00
37878;BME280;23715;53.652;8.516;2023-02-28T18:48:04;103377.76;;;5.19;100.00
37878;BME280;23715;53.652;8.516;2023-02-28T18:53:11;103366.61;;;5.41;100.00
37878;BME280;23715;53.652;8.516;2023-02-28T18:58:33;103363.41;;;5.62;100.00
37878;BME280;23715;53.652;8.516;2023-02-28T19:08:45;103347.80;;;5.81;100.00
37878;BME280;23715;53.652;8.516;2023-02-28T19:14:07;103344.89;;;5.73;100.00
37878;BME280;23715;53.652;8.516;2023-02-28T19:19:12;103348.33;;;5.42;100.00
37878;BME280;23715;53.652;8.516;2023-02-28T19:24:29;103340.35;;;5.22;100.00
37878;BME280;23715;53.652;8.516;2023-02-28T19:29:25;103339.89;;;4.84;100.00
37878;BME280;23715;53.652;8.516;2023-02-28T19:34:26;103348.91;;;4.78;100.00
37878;BME280;23715;53.652;8.516;2023-02-28T19:39:26;103350.29;;;4.75;100.00
37878;BME280;23715;53.652;8.516;2023-02-28T19:44:28;103349.33;;;4.57;100.00
37878;BME280;23715;53.652;8.516;2023-02-28T19:49:28;103350.27;;;4.56;100.00
37878;BME280;23715;53.652;8.516;2023-02-28T19:54:30;103356.33;;;4.62;100.00
37878;BME280;23715;53.652;8.516;2023-02-28T19:59:32;103347.45;;;4.62;100.00
37878;BME280;23715;53.652;8.516;2023-02-28T20:04:32;103357.69;;;4.61;100.00
37878;BME280;23715;53.652;8.516;2023-02-28T20:09:32;103366.47;;;4.66;100.00
37878;BME280;23715;53.652;8.516;2023-02-28T20:14:32;103358.74;;;4.54;100.00
37878;BME280;23715;53.652;8.516;2023-02-28T20:19:34;103354.75;;;4.54;100.00
37878;BME280;23715;53.652;8.516;2023-02-28T20:24:39;103358.17;;;4.36;100.00
37878;BME280;23715;53.652;8.516;2023-02-28T20:29:41;103367.22;;;4.29;100.00
37878;BME280;23715;53.652;8.516;2023-02-28T20:34:43;103359.32;;;4.23;100.00
37878;BME280;23715;53.652;8.516;2023-02-28T20:39:45;103360.41;;;3.87;100.00
37878;BME280;23715;53.652;8.516;2023-02-28T20:44:46;103360.52;;;3.81;100.00
37878;BME280;23715;53.652;8.516;2023-02-28T20:49:46;103372.45;;;3.85;100.00
37878;BME280;23715;53.652;8.516;2023-02-28T20:54:47;103362.36;;;3.77;100.00
37878;BME280;23715;53.652;8.516;2023-02-28T20:59:48;103367.20;;;3.54;100.00
37878;BME280;23715;53.652;8.516;2023-02-28T21:04:49;103369.00;;;3.51;100.00
37878;BME280;23715;53.652;8.516;2023-02-28T21:09:49;103372.13;;;3.51;100.00
37878;BME280;23715;53.652;8.516;2023-02-28T21:14:51;103366.50;;;3.41;100.00
37878;BME280;23715;53.652;8.516;2023-02-28T21:19:54;103374.95;;;3.39;100.00
37878;BME280;23715;53.652;8.516;2023-02-28T21:24:54;103371.56;;;3.29;100.00
37878;BME280;23715;53.652;8.516;2023-02-28T21:29:54;103378.13;;;3.33;100.00
37878;BME280;23715;53.652;8.516;2023-02-28T21:34:54;103381.70;;;3.32;100.00
37878;BME280;23715;53.652;8.516;2023-02-28T21:39:56;103383.77;;;3.42;100.00
37878;BME280;23715;53.652;8.516;2023-02-28T21:44:58;103375.81;;;3.41;100.00
37878;BME280;23715;53.652;8.516;2023-02-28T21:49:59;103376.75;;;3.38;100.00
37878;BME280;23715;53.652;8.516;2023-02-28T21:54:59;103366.95;;;3.11;100.00
37878;BME280;23715;53.652;8.516;2023-02-28T22:00:01;103366.72;;;2.95;100.00
37878;BME280;23715;53.652;8.516;2023-02-28T22:05:04;103367.07;;;3.02;100.00
37878;BME280;23715;53.652;8.516;2023-02-28T22:10:05;103368.58;;;3.20;100.00
37878;BME280;23715;53.652;8.516;2023-02-28T22:15:06;103374.12;;;3.03;100.00
37878;BME280;23715;53.652;8.516;2023-02-28T22:20:07;103374.12;;;3.03;100.00
37878;BME280;23715;53.652;8.516;2023-02-28T22:25:08;103367.64;;;2.94;100.00
37878;BME280;23715;53.652;8.516;2023-02-28T22:30:09;103363.28;;;2.88;100.00
37878;BME280;23715;53.652;8.516;2023-02-28T22:35:09;103372.42;;;2.99;100.00
37878;BME280;23715;53.652;8.516;2023-02-28T22:40:10;103372.99;;;2.89;100.00
37878;BME280;23715;53.652;8.516;2023-02-28T22:45:11;103361.44;;;2.57;100.00
37878;BME280;23715;53.652;8.516;2023-02-28T22:50:12;103367.32;;;2.82;100.00
37878;BME280;23715;53.652;8.516;2023-02-28T22:55:12;103372.11;;;2.90;100.00
37878;BME280;23715;53.652;8.516;2023-02-28T23:00:13;103367.52;;;2.67;100.00
37878;BME280;23715;53.652;8.516;2023-02-28T23:05:13;103367.16;;;2.60;100.00
37878;BME280;23715;53.652;8.516;2023-02-28T23:10:16;103369.81;;;2.60;100.00
37878;BME280;23715;53.652;8.516;2023-02-28T23:15:18;103378.68;;;2.19;100.00
37878;BME280;23715;53.652;8.516;2023-02-28T23:20:19;103373.88;;;2.53;100.00
37878;BME280;23715;53.652;8.516;2023-02-28T23:25:20;103373.88;;;2.53;100.00
37878;BME280;23715;53.652;8.516;2023-02-28T23:30:21;103382.23;;;2.58;100.00
37878;BME280;23715;53.652;8.516;2023-02-28T23:35:22;103385.54;;;2.40;100.00
37878;BME280;23715;53.652;8.516;2023-02-28T23:40:21;103396.48;;;2.09;100.00
37878;BME280;23715;53.652;8.516;2023-02-28T23:45:21;103395.06;;;2.19;100.00
37878;BME280;23715;53.652;8.516;2023-02-28T23:50:21;103392.81;;;2.23;100.00
